sensor_id;sensor_type;location;lat;lon;timestamp;P1;P2;P0
49644;PMS5003;36494;50.730;-1.932;2024-03-07T00:01:58;70;69;
49644;PMS5003;36494;50.730;-1.932;2024-03-07T00:04:24;60;58;
49644;PMS5003;36494;50.730;-1.932;2024-03-07T00:06:49;70;67;
49644;PMS5003;36494;50.730;-1.932;2024-03-07T00:09:14;76;72;
49644;PMS5003;36494;50.730;-1.932;2024-03-07T00:11:41;69;67;
49644;PMS5003;36494;50.730;-1.932;2024-03-07T00:14:06;73;70;
49644;PMS5003;36494;50.730;-1.932;2024-03-07T00:16:32;79;79;
49644;PMS5003;36494;50.730;-1.932;2024-03-07T00:18:59;67;63;
49644;PMS5003;36494;50.730;-1.932;2024-03-07T00:21:24;63;61;
49644;PMS5003;36494;50.730;-1.932;2024-03-07T00:23:49;81;79;
49644;PMS5003;36494;50.730;-1.932;2024-03-07T00:26:15;78;76;
49644;PMS5003;36494;50.730;-1.932;2024-03-07T00:28:40;66;64;
49644;PMS5003;36494;50.730;-1.932;2024-03-07T00:31:06;54;49;
49644;PMS5003;36494;50.730;-1.932;2024-03-07T00:33:31;79;73;
49644;PMS5003;36494;50.730;-1.932;2024-03-07T00:35:57;123;121;
49644;PMS5003;36494;50.730;-1.932;2024-03-07T00:38:22;78;76;
49644;PMS5003;36494;50.730;-1.932;2024-03-07T00:40:48;67;66;
49644;PMS5003;36494;50.730;-1.932;2024-03-07T00:43:12;97;96;
49644;PMS5003;36494;50.730;-1.932;2024-03-07T00:45:38;82;79;
49644;PMS5003;36494;50.730;-1.932;2024-03-07T00:48:05;67;63;
49644;PMS5003;36494;50.730;-1.932;2024-03-07T00:50:30;73;67;
49644;PMS5003;36494;50.730;-1.932;2024-03-07T00:52:56;103;96;
49644;PMS5003;36494;50.730;-1.932;2024-03-07T00:55:21;88;84;
49644;PMS5003;36494;50.730;-1.932;2024-03-07T00:57:47;79;76;
49644;PMS5003;36494;50.730;-1.932;2024-03-07T01:00:13;78;73;
49644;PMS5003;36494;50.730;-1.932;2024-03-07T01:02:38;103;94;
49644;PMS5003;36494;50.730;-1.932;2024-03-07T01:05:04;85;82;
49644;PMS5003;36494;50.730;-1.932;2024-03-07T01:07:29;82;81;
49644;PMS5003;36494;50.730;-1.932;2024-03-07T01:09:56;81;76;
49644;PMS5003;36494;50.730;-1.932;2024-03-07T01:12:21;72;70;
49644;PMS5003;36494;50.730;-1.932;2024-03-07T01:14:47;79;75;
49644;PMS5003;36494;50.730;-1.932;2024-03-07T01:17:12;73;72;
49644;PMS5003;36494;50.730;-1.932;2024-03-07T01:19:38;91;87;
49644;PMS5003;36494;50.730;-1.932;2024-03-07T01:22:03;87;85;
49644;PMS5003;36494;50.730;-1.932;2024-03-07T01:24:29;87;78;
49644;PMS5003;36494;50.730;-1.932;2024-03-07T01:26:54;66;66;
49644;PMS5003;36494;50.730;-1.932;2024-03-07T01:29:20;88;84;
49644;PMS5003;36494;50.730;-1.932;2024-03-07T01:31:46;75;70;
49644;PMS5003;36494;50.730;-1.932;2024-03-07T01:34:11;126;121;
49644;PMS5003;36494;50.730;-1.932;2024-03-07T01:36:37;72;64;
49644;PMS5003;36494;50.730;-1.932;2024-03-07T01:39:03;85;79;
49644;PMS5003;36494;50.730;-1.932;2024-03-07T01:41:32;75;73;
49644;PMS5003;36494;50.730;-1.932;2024-03-07T01:43:54;82;81;
49644;PMS5003;36494;50.730;-1.932;2024-03-07T01:46:20;84;78;
49644;PMS5003;36494;50.730;-1.932;2024-03-07T01:48:45;76;72;
49644;PMS5003;36494;50.730;-1.932;2024-03-07T01:51:11;96;90;
49644;PMS5003;36494;50.730;-1.932;2024-03-07T01:53:38;79;76;
49644;PMS5003;36494;50.730;-1.932;2024-03-07T01:56:03;81;79;
49644;PMS5003;36494;50.730;-1.932;2024-03-07T01:58:28;82;78;
49644;PMS5003;36494;50.730;-1.932;2024-03-07T02:00:54;85;79;
49644;PMS5003;36494;50.730;-1.932;2024-03-07T02:03:19;103;103;
49644;PMS5003;36494;50.730;-1.932;2024-03-07T02:05:46;73;69;
49644;PMS5003;36494;50.730;-1.932;2024-03-07T02:08:10;100;97;
49644;PMS5003;36494;50.730;-1.932;2024-03-07T02:10:36;75;73;
49644;PMS5003;36494;50.730;-1.932;2024-03-07T02:13:01;73;70;
49644;PMS5003;36494;50.730;-1.932;2024-03-07T02:15:27;72;70;
49644;PMS5003;36494;50.730;-1.932;2024-03-07T02:17:53;75;70;
49644;PMS5003;36494;50.730;-1.932;2024-03-07T02:20:18;64;61;
49644;PMS5003;36494;50.730;-1.932;2024-03-07T02:22:43;76;75;
49644;PMS5003;36494;50.730;-1.932;2024-03-07T02:25:08;73;69;
49644;PMS5003;36494;50.730;-1.932;2024-03-07T02:27:34;82;79;
49644;PMS5003;36494;50.730;-1.932;2024-03-07T02:29:59;75;72;
49644;PMS5003;36494;50.730;-1.932;2024-03-07T02:32:26;88;87;
49644;PMS5003;36494;50.730;-1.932;2024-03-07T02:34:51;81;79;
49644;PMS5003;36494;50.730;-1.932;2024-03-07T02:37:17;73;72;
49644;PMS5003;36494;50.730;-1.932;2024-03-07T02:39:42;67;66;
49644;PMS5003;36494;50.730;-1.932;2024-03-07T02:42:14;90;81;
49644;PMS5003;36494;50.730;-1.932;2024-03-07T02:44:34;93;91;
49644;PMS5003;36494;50.730;-1.932;2024-03-07T02:47:00;79;78;
49644;PMS5003;36494;50.730;-1.932;2024-03-07T02:49:25;115;111;
49644;PMS5003;36494;50.730;-1.932;2024-03-07T02:51:52;100;99;
49644;PMS5003;36494;50.730;-1.932;2024-03-07T02:54:17;76;72;
49644;PMS5003;36494;50.730;-1.932;2024-03-07T02:56:44;102;102;
49644;PMS5003;36494;50.730;-1.932;2024-03-07T02:59:09;49;46;
49644;PMS5003;36494;50.730;-1.932;2024-03-07T03:01:34;42;40;
49644;PMS5003;36494;50.730;-1.932;2024-03-07T03:04:00;43;43;
49644;PMS5003;36494;50.730;-1.932;2024-03-07T03:06:25;46;40;
49644;PMS5003;36494;50.730;-1.932;2024-03-07T03:08:50;48;46;
49644;PMS5003;36494;50.730;-1.932;2024-03-07T03:11:16;48;46;
49644;PMS5003;36494;50.730;-1.932;2024-03-07T03:13:42;52;46;
49644;PMS5003;36494;50.730;-1.932;2024-03-07T03:16:07;51;49;
49644;PMS5003;36494;50.730;-1.932;2024-03-07T03:18:33;51;49;
49644;PMS5003;36494;50.730;-1.932;2024-03-07T03:20:58;46;42;
49644;PMS5003;36494;50.730;-1.932;2024-03-07T03:23:24;54;51;
49644;PMS5003;36494;50.730;-1.932;2024-03-07T03:25:50;43;39;
49644;PMS5003;36494;50.730;-1.932;2024-03-07T03:28:16;51;48;
49644;PMS5003;36494;50.730;-1.932;2024-03-07T03:30:41;60;52;
49644;PMS5003;36494;50.730;-1.932;2024-03-07T03:33:07;52;46;
49644;PMS5003;36494;50.730;-1.932;2024-03-07T03:35:33;57;51;
49644;PMS5003;36494;50.730;-1.932;2024-03-07T03:37:58;48;46;
49644;PMS5003;36494;50.730;-1.932;2024-03-07T03:40:24;48;46;
49644;PMS5003;36494;50.730;-1.932;2024-03-07T03:42:52;52;45;
49644;PMS5003;36494;50.730;-1.932;2024-03-07T03:45:16;49;46;
49644;PMS5003;36494;50.730;-1.932;2024-03-07T03:47:41;49;49;
49644;PMS5003;36494;50.730;-1.932;2024-03-07T03:50:07;54;51;
49644;PMS5003;36494;50.730;-1.932;2024-03-07T03:52:31;58;52;
49644;PMS5003;36494;50.730;-1.932;2024-03-07T03:54:57;49;46;
49644;PMS5003;36494;50.730;-1.932;2024-03-07T03:57:23;57;55;
49644;PMS5003;36494;50.730;-1.932;2024-03-07T03:59:48;51;45;
49644;PMS5003;36494;50.730;-1.932;2024-03-07T04:02:14;52;51;
49644;PMS5003;36494;50.730;-1.932;2024-03-07T04:04:40;49;46;
49644;PMS5003;36494;50.730;-1.932;2024-03-07T04:07:06;51;46;
49644;PMS5003;36494;50.730;-1.932;2024-03-07T04:09:32;55;52;
49644;PMS5003;36494;50.730;-1.932;2024-03-07T04:11:57;58;52;
49644;PMS5003;36494;50.730;-1.932;2024-03-07T04:14:22;55;51;
49644;PMS5003;36494;50.730;-1.932;2024-03-07T04:16:47;57;54;
49644;PMS5003;36494;50.730;-1.932;2024-03-07T04:19:14;55;52;
49644;PMS5003;36494;50.730;-1.932;2024-03-07T04:21:41;51;51;
49644;PMS5003;36494;50.730;-1.932;2024-03-07T04:24:06;52;49;
49644;PMS5003;36494;50.730;-1.932;2024-03-07T04:26:31;55;51;
49644;PMS5003;36494;50.730;-1.932;2024-03-07T04:28:57;51;51;
49644;PMS5003;36494;50.730;-1.932;2024-03-07T04:31:22;46;45;
49644;PMS5003;36494;50.730;-1.932;2024-03-07T04:33:49;49;46;
49644;PMS5003;36494;50.730;-1.932;2024-03-07T04:36:14;64;57;
49644;PMS5003;36494;50.730;-1.932;2024-03-07T04:38:39;55;52;
49644;PMS5003;36494;50.730;-1.932;2024-03-07T04:41:05;52;49;
49644;PMS5003;36494;50.730;-1.932;2024-03-07T04:43:34;57;51;
49644;PMS5003;36494;50.730;-1.932;2024-03-07T04:45:57;49;46;
49644;PMS5003;36494;50.730;-1.932;2024-03-07T04:48:23;54;52;
49644;PMS5003;36494;50.730;-1.932;2024-03-07T04:50:48;52;51;
49644;PMS5003;36494;50.730;-1.932;2024-03-07T04:53:13;48;46;
49644;PMS5003;36494;50.730;-1.932;2024-03-07T04:55:42;54;51;
49644;PMS5003;36494;50.730;-1.932;2024-03-07T04:58:05;43;43;
49644;PMS5003;36494;50.730;-1.932;2024-03-07T05:00:30;55;48;
49644;PMS5003;36494;50.730;-1.932;2024-03-07T05:02:56;43;42;
49644;PMS5003;36494;50.730;-1.932;2024-03-07T05:05:21;54;51;
49644;PMS5003;36494;50.730;-1.932;2024-03-07T05:07:48;49;46;
49644;PMS5003;36494;50.730;-1.932;2024-03-07T05:10:13;48;48;
49644;PMS5003;36494;50.730;-1.932;2024-03-07T05:12:38;48;46;
49644;PMS5003;36494;50.730;-1.932;2024-03-07T05:15:04;52;49;
49644;PMS5003;36494;50.730;-1.932;2024-03-07T05:17:29;58;54;
49644;PMS5003;36494;50.730;-1.932;2024-03-07T05:19:57;51;51;
49644;PMS5003;36494;50.730;-1.932;2024-03-07T05:22:20;45;42;
49644;PMS5003;36494;50.730;-1.932;2024-03-07T05:24:46;51;51;
49644;PMS5003;36494;50.730;-1.932;2024-03-07T05:27:12;46;45;
49644;PMS5003;36494;50.730;-1.932;2024-03-07T05:29:37;52;49;
49644;PMS5003;36494;50.730;-1.932;2024-03-07T05:34:28;43;40;
49644;PMS5003;36494;50.730;-1.932;2024-03-07T05:36:53;51;46;
49644;PMS5003;36494;50.730;-1.932;2024-03-07T05:39:19;48;46;
49644;PMS5003;36494;50.730;-1.932;2024-03-07T05:41:45;46;46;
49644;PMS5003;36494;50.730;-1.932;2024-03-07T05:44:11;45;43;
49644;PMS5003;36494;50.730;-1.932;2024-03-07T05:46:38;40;40;
49644;PMS5003;36494;50.730;-1.932;2024-03-07T05:49:03;45;39;
49644;PMS5003;36494;50.730;-1.932;2024-03-07T05:51:29;40;37;
49644;PMS5003;36494;50.730;-1.932;2024-03-07T05:53:54;40;39;
49644;PMS5003;36494;50.730;-1.932;2024-03-07T05:56:19;46;43;
49644;PMS5003;36494;50.730;-1.932;2024-03-07T05:58:45;45;42;
49644;PMS5003;36494;50.730;-1.932;2024-03-07T06:01:10;48;46;
49644;PMS5003;36494;50.730;-1.932;2024-03-07T06:03:35;43;42;
49644;PMS5003;36494;50.730;-1.932;2024-03-07T06:06:01;49;46;
49644;PMS5003;36494;50.730;-1.932;2024-03-07T06:08:27;39;39;
49644;PMS5003;36494;50.730;-1.932;2024-03-07T06:10:54;46;42;
49644;PMS5003;36494;50.730;-1.932;2024-03-07T06:13:20;42;40;
49644;PMS5003;36494;50.730;-1.932;2024-03-07T06:15:46;37;37;
49644;PMS5003;36494;50.730;-1.932;2024-03-07T06:18:11;46;45;
49644;PMS5003;36494;50.730;-1.932;2024-03-07T06:20:37;46;40;
49644;PMS5003;36494;50.730;-1.932;2024-03-07T06:23:02;45;43;
49644;PMS5003;36494;50.730;-1.932;2024-03-07T06:25:27;48;43;
49644;PMS5003;36494;50.730;-1.932;2024-03-07T06:27:52;48;45;
49644;PMS5003;36494;50.730;-1.932;2024-03-07T06:30:18;51;51;
49644;PMS5003;36494;50.730;-1.932;2024-03-07T06:32:44;43;42;
49644;PMS5003;36494;50.730;-1.932;2024-03-07T06:35:09;49;45;
49644;PMS5003;36494;50.730;-1.932;2024-03-07T06:37:35;46;43;
49644;PMS5003;36494;50.730;-1.932;2024-03-07T06:40:02;43;40;
49644;PMS5003;36494;50.730;-1.932;2024-03-07T06:42:28;46;45;
49644;PMS5003;36494;50.730;-1.932;2024-03-07T06:44:54;55;49;
49644;PMS5003;36494;50.730;-1.932;2024-03-07T06:47:20;46;45;
49644;PMS5003;36494;50.730;-1.932;2024-03-07T06:49:45;55;51;
49644;PMS5003;36494;50.730;-1.932;2024-03-07T06:52:11;55;49;
49644;PMS5003;36494;50.730;-1.932;2024-03-07T06:54:36;54;51;
49644;PMS5003;36494;50.730;-1.932;2024-03-07T06:57:08;46;45;
49644;PMS5003;36494;50.730;-1.932;2024-03-07T06:59:29;54;51;
49644;PMS5003;36494;50.730;-1.932;2024-03-07T07:01:54;55;55;
49644;PMS5003;36494;50.730;-1.932;2024-03-07T07:04:20;55;52;
49644;PMS5003;36494;50.730;-1.932;2024-03-07T07:06:45;57;51;
49644;PMS5003;36494;50.730;-1.932;2024-03-07T07:09:13;55;51;
49644;PMS5003;36494;50.730;-1.932;2024-03-07T07:11:38;55;52;
49644;PMS5003;36494;50.730;-1.932;2024-03-07T07:14:03;60;57;
49644;PMS5003;36494;50.730;-1.932;2024-03-07T07:16:29;61;57;
49644;PMS5003;36494;50.730;-1.932;2024-03-07T07:18:54;54;52;
49644;PMS5003;36494;50.730;-1.932;2024-03-07T07:21:20;54;52;
49644;PMS5003;36494;50.730;-1.932;2024-03-07T07:23:45;60;55;
49644;PMS5003;36494;50.730;-1.932;2024-03-07T07:26:11;61;57;
49644;PMS5003;36494;50.730;-1.932;2024-03-07T07:28:36;64;60;
49644;PMS5003;36494;50.730;-1.932;2024-03-07T07:31:02;55;54;
49644;PMS5003;36494;50.730;-1.932;2024-03-07T07:33:27;61;55;
49644;PMS5003;36494;50.730;-1.932;2024-03-07T07:35:53;67;60;
49644;PMS5003;36494;50.730;-1.932;2024-03-07T07:38:19;61;57;
49644;PMS5003;36494;50.730;-1.932;2024-03-07T07:40:43;66;63;
49644;PMS5003;36494;50.730;-1.932;2024-03-07T07:43:09;70;63;
49644;PMS5003;36494;50.730;-1.932;2024-03-07T07:45:35;73;66;
49644;PMS5003;36494;50.730;-1.932;2024-03-07T07:48:00;55;52;
49644;PMS5003;36494;50.730;-1.932;2024-03-07T07:50:26;51;48;
49644;PMS5003;36494;50.730;-1.932;2024-03-07T07:52:52;60;55;
49644;PMS5003;36494;50.730;-1.932;2024-03-07T07:55:17;64;57;
49644;PMS5003;36494;50.730;-1.932;2024-03-07T07:57:48;70;61;
49644;PMS5003;36494;50.730;-1.932;2024-03-07T08:00:10;64;61;
49644;PMS5003;36494;50.730;-1.932;2024-03-07T08:02:34;70;61;
49644;PMS5003;36494;50.730;-1.932;2024-03-07T08:04:59;52;51;
49644;PMS5003;36494;50.730;-1.932;2024-03-07T08:07:25;60;57;
49644;PMS5003;36494;50.730;-1.932;2024-03-07T08:09:54;66;60;
49644;PMS5003;36494;50.730;-1.932;2024-03-07T08:12:17;70;64;
49644;PMS5003;36494;50.730;-1.932;2024-03-07T08:14:43;63;58;
49644;PMS5003;36494;50.730;-1.932;2024-03-07T08:17:08;64;60;
49644;PMS5003;36494;50.730;-1.932;2024-03-07T08:19:34;60;57;
49644;PMS5003;36494;50.730;-1.932;2024-03-07T08:21:59;55;49;
49644;PMS5003;36494;50.730;-1.932;2024-03-07T08:24:26;58;55;
49644;PMS5003;36494;50.730;-1.932;2024-03-07T08:26:51;58;48;
49644;PMS5003;36494;50.730;-1.932;2024-03-07T08:29:17;58;55;
49644;PMS5003;36494;50.730;-1.932;2024-03-07T08:31:43;58;57;
49644;PMS5003;36494;50.730;-1.932;2024-03-07T08:34:09;58;52;
49644;PMS5003;36494;50.730;-1.932;2024-03-07T08:36:35;60;57;
49644;PMS5003;36494;50.730;-1.932;2024-03-07T08:39:00;49;46;
49644;PMS5003;36494;50.730;-1.932;2024-03-07T08:41:26;55;52;
49644;PMS5003;36494;50.730;-1.932;2024-03-07T08:43:51;54;48;
49644;PMS5003;36494;50.730;-1.932;2024-03-07T08:46:18;48;48;
49644;PMS5003;36494;50.730;-1.932;2024-03-07T08:48:42;52;49;
49644;PMS5003;36494;50.730;-1.932;2024-03-07T08:51:07;64;52;
49644;PMS5003;36494;50.730;-1.932;2024-03-07T08:53:33;168;163;
49644;PMS5003;36494;50.730;-1.932;2024-03-07T08:55:58;69;63;
49644;PMS5003;36494;50.730;-1.932;2024-03-07T08:58:26;99;93;
49644;PMS5003;36494;50.730;-1.932;2024-03-07T09:00:49;67;67;
49644;PMS5003;36494;50.730;-1.932;2024-03-07T09:03:14;67;66;
49644;PMS5003;36494;50.730;-1.932;2024-03-07T09:05:40;54;52;
49644;PMS5003;36494;50.730;-1.932;2024-03-07T09:08:06;79;76;
49644;PMS5003;36494;50.730;-1.932;2024-03-07T09:10:31;57;54;
49644;PMS5003;36494;50.730;-1.932;2024-03-07T09:12:56;48;48;
49644;PMS5003;36494;50.730;-1.932;2024-03-07T09:15:23;57;55;
49644;PMS5003;36494;50.730;-1.932;2024-03-07T09:17:48;82;82;
49644;PMS5003;36494;50.730;-1.932;2024-03-07T09:20:14;45;40;
49644;PMS5003;36494;50.730;-1.932;2024-03-07T09:22:39;60;57;
49644;PMS5003;36494;50.730;-1.932;2024-03-07T09:25:05;54;52;
49644;PMS5003;36494;50.730;-1.932;2024-03-07T09:27:31;51;48;
49644;PMS5003;36494;50.730;-1.932;2024-03-07T09:29:56;64;61;
49644;PMS5003;36494;50.730;-1.932;2024-03-07T09:32:22;55;55;
49644;PMS5003;36494;50.730;-1.932;2024-03-07T09:34:51;46;45;
49644;PMS5003;36494;50.730;-1.932;2024-03-07T09:37:13;43;43;
49644;PMS5003;36494;50.730;-1.932;2024-03-07T09:39:38;58;57;
49644;PMS5003;36494;50.730;-1.932;2024-03-07T09:42:04;51;49;
49644;PMS5003;36494;50.730;-1.932;2024-03-07T09:44:30;46;45;
49644;PMS5003;36494;50.730;-1.932;2024-03-07T09:46:55;55;52;
49644;PMS5003;36494;50.730;-1.932;2024-03-07T09:49:20;51;45;
49644;PMS5003;36494;50.730;-1.932;2024-03-07T09:51:46;66;61;
49644;PMS5003;36494;50.730;-1.932;2024-03-07T09:54:12;51;48;
49644;PMS5003;36494;50.730;-1.932;2024-03-07T09:56:37;55;51;
49644;PMS5003;36494;50.730;-1.932;2024-03-07T09:59:03;108;103;
49644;PMS5003;36494;50.730;-1.932;2024-03-07T10:01:28;51;48;
49644;PMS5003;36494;50.730;-1.932;2024-03-07T10:03:57;57;55;
49644;PMS5003;36494;50.730;-1.932;2024-03-07T10:06:19;58;57;
49644;PMS5003;36494;50.730;-1.932;2024-03-07T10:08:44;45;43;
49644;PMS5003;36494;50.730;-1.932;2024-03-07T10:11:09;63;58;
49644;PMS5003;36494;50.730;-1.932;2024-03-07T10:13:35;69;66;
49644;PMS5003;36494;50.730;-1.932;2024-03-07T10:16:01;70;64;
49644;PMS5003;36494;50.730;-1.932;2024-03-07T10:18:26;73;69;
49644;PMS5003;36494;50.730;-1.932;2024-03-07T10:20:53;43;43;
49644;PMS5003;36494;50.730;-1.932;2024-03-07T10:23:19;49;45;
49644;PMS5003;36494;50.730;-1.932;2024-03-07T10:25:46;46;45;
49644;PMS5003;36494;50.730;-1.932;2024-03-07T10:28:10;48;45;
49644;PMS5003;36494;50.730;-1.932;2024-03-07T10:30:39;46;45;
49644;PMS5003;36494;50.730;-1.932;2024-03-07T10:33:01;60;58;
49644;PMS5003;36494;50.730;-1.932;2024-03-07T10:35:27;43;43;
49644;PMS5003;36494;50.730;-1.932;2024-03-07T10:37:52;37;36;
49644;PMS5003;36494;50.730;-1.932;2024-03-07T10:40:18;49;48;
49644;PMS5003;36494;50.730;-1.932;2024-03-07T10:42:45;40;39;
49644;PMS5003;36494;50.730;-1.932;2024-03-07T10:45:09;45;43;
49644;PMS5003;36494;50.730;-1.932;2024-03-07T10:47:38;55;55;
49644;PMS5003;36494;50.730;-1.932;2024-03-07T10:50:03;51;49;
49644;PMS5003;36494;50.730;-1.932;2024-03-07T10:52:28;88;87;
49644;PMS5003;36494;50.730;-1.932;2024-03-07T10:54:54;34;33;
49644;PMS5003;36494;50.730;-1.932;2024-03-07T10:57:19;48;46;
49644;PMS5003;36494;50.730;-1.932;2024-03-07T10:59:45;36;36;
49644;PMS5003;36494;50.730;-1.932;2024-03-07T11:02:11;42;42;
49644;PMS5003;36494;50.730;-1.932;2024-03-07T11:04:33;42;39;
49644;PMS5003;36494;50.730;-1.932;2024-03-07T11:06:59;34;34;
49644;PMS5003;36494;50.730;-1.932;2024-03-07T11:09:24;43;43;
49644;PMS5003;36494;50.730;-1.932;2024-03-07T11:11:50;43;40;
49644;PMS5003;36494;50.730;-1.932;2024-03-07T11:14:15;37;36;
49644;PMS5003;36494;50.730;-1.932;2024-03-07T11:16:40;46;46;
49644;PMS5003;36494;50.730;-1.932;2024-03-07T11:23:59;31;30;
49644;PMS5003;36494;50.730;-1.932;2024-03-07T11:26:21;25;25;
49644;PMS5003;36494;50.730;-1.932;2024-03-07T11:28:47;31;31;
49644;PMS5003;36494;50.730;-1.932;2024-03-07T11:31:12;30;28;
49644;PMS5003;36494;50.730;-1.932;2024-03-07T11:33:38;24;24;
49644;PMS5003;36494;50.730;-1.932;2024-03-07T11:36:04;30;28;
49644;PMS5003;36494;50.730;-1.932;2024-03-07T11:38:30;28;27;
49644;PMS5003;36494;50.730;-1.932;2024-03-07T11:40:58;28;28;
49644;PMS5003;36494;50.730;-1.932;2024-03-07T11:43:20;33;31;
49644;PMS5003;36494;50.730;-1.932;2024-03-07T11:45:45;22;22;
49644;PMS5003;36494;50.730;-1.932;2024-03-07T11:48:10;31;30;
49644;PMS5003;36494;50.730;-1.932;2024-03-07T11:50:35;21;19;
49644;PMS5003;36494;50.730;-1.932;2024-03-07T11:53:01;24;22;
49644;PMS5003;36494;50.730;-1.932;2024-03-07T11:55:26;22;22;
49644;PMS5003;36494;50.730;-1.932;2024-03-07T11:57:51;25;21;
49644;PMS5003;36494;50.730;-1.932;2024-03-07T12:00:17;31;30;
49644;PMS5003;36494;50.730;-1.932;2024-03-07T12:02:42;25;25;
49644;PMS5003;36494;50.730;-1.932;2024-03-07T12:05:08;28;28;
49644;PMS5003;36494;50.730;-1.932;2024-03-07T12:07:34;34;33;
49644;PMS5003;36494;50.730;-1.932;2024-03-07T12:09:59;40;40;
49644;PMS5003;36494;50.730;-1.932;2024-03-07T12:12:25;28;28;
49644;PMS5003;36494;50.730;-1.932;2024-03-07T12:14:50;31;30;
49644;PMS5003;36494;50.730;-1.932;2024-03-07T12:17:15;52;52;
49644;PMS5003;36494;50.730;-1.932;2024-03-07T12:19:41;30;28;
49644;PMS5003;36494;50.730;-1.932;2024-03-07T12:22:07;19;19;
49644;PMS5003;36494;50.730;-1.932;2024-03-07T12:24:34;19;19;
49644;PMS5003;36494;50.730;-1.932;2024-03-07T12:27:05;21;21;
49644;PMS5003;36494;50.730;-1.932;2024-03-07T12:29:25;19;19;
49644;PMS5003;36494;50.730;-1.932;2024-03-07T12:31:47;16;16;
49644;PMS5003;36494;50.730;-1.932;2024-03-07T12:34:13;21;19;
49644;PMS5003;36494;50.730;-1.932;2024-03-07T12:36:38;24;24;
49644;PMS5003;36494;50.730;-1.932;2024-03-07T12:39:03;27;25;
49644;PMS5003;36494;50.730;-1.932;2024-03-07T12:41:29;45;43;
49644;PMS5003;36494;50.730;-1.932;2024-03-07T12:43:55;19;19;
49644;PMS5003;36494;50.730;-1.932;2024-03-07T12:46:20;24;24;
49644;PMS5003;36494;50.730;-1.932;2024-03-07T12:48:45;28;28;
49644;PMS5003;36494;50.730;-1.932;2024-03-07T12:51:11;22;22;
49644;PMS5003;36494;50.730;-1.932;2024-03-07T12:53:36;16;16;
49644;PMS5003;36494;50.730;-1.932;2024-03-07T12:56:02;16;15;
49644;PMS5003;36494;50.730;-1.932;2024-03-07T12:58:27;13;13;
49644;PMS5003;36494;50.730;-1.932;2024-03-07T13:00:58;12;12;
49644;PMS5003;36494;50.730;-1.932;2024-03-07T13:03:18;13;12;
49644;PMS5003;36494;50.730;-1.932;2024-03-07T13:05:44;13;12;
49644;PMS5003;36494;50.730;-1.932;2024-03-07T13:08:10;12;10;
49644;PMS5003;36494;50.730;-1.932;2024-03-07T13:10:35;12;12;
49644;PMS5003;36494;50.730;-1.932;2024-03-07T13:13:02;12;12;
49644;PMS5003;36494;50.730;-1.932;2024-03-07T13:15:27;12;12;
49644;PMS5003;36494;50.730;-1.932;2024-03-07T13:17:53;12;12;
49644;PMS5003;36494;50.730;-1.932;2024-03-07T13:20:18;13;13;
49644;PMS5003;36494;50.730;-1.932;2024-03-07T13:22:44;10;10;
49644;PMS5003;36494;50.730;-1.932;2024-03-07T13:25:10;10;10;
49644;PMS5003;36494;50.730;-1.932;2024-03-07T13:27:35;9;9;
49644;PMS5003;36494;50.730;-1.932;2024-03-07T13:30:00;12;12;
49644;PMS5003;36494;50.730;-1.932;2024-03-07T13:32:26;12;10;
49644;PMS5003;36494;50.730;-1.932;2024-03-07T13:34:51;15;15;
49644;PMS5003;36494;50.730;-1.932;2024-03-07T13:37:21;13;13;
49644;PMS5003;36494;50.730;-1.932;2024-03-07T13:39:43;15;15;
49644;PMS5003;36494;50.730;-1.932;2024-03-07T13:42:09;15;15;
49644;PMS5003;36494;50.730;-1.932;2024-03-07T13:44:35;16;15;
49644;PMS5003;36494;50.730;-1.932;2024-03-07T13:47:00;18;16;
49644;PMS5003;36494;50.730;-1.932;2024-03-07T13:49:26;18;16;
49644;PMS5003;36494;50.730;-1.932;2024-03-07T13:51:51;18;16;
49644;PMS5003;36494;50.730;-1.932;2024-03-07T13:54:17;31;30;
49644;PMS5003;36494;50.730;-1.932;2024-03-07T13:56:43;34;31;
49644;PMS5003;36494;50.730;-1.932;2024-03-07T14:01:36;58;52;
49644;PMS5003;36494;50.730;-1.932;2024-03-07T14:06:26;69;67;
49644;PMS5003;36494;50.730;-1.932;2024-03-07T14:08:55;84;75;
49644;PMS5003;36494;50.730;-1.932;2024-03-07T14:13:45;82;79;
49644;PMS5003;36494;50.730;-1.932;2024-03-07T14:23:30;72;66;
49644;PMS5003;36494;50.730;-1.932;2024-03-07T14:25:59;75;67;
49644;PMS5003;36494;50.730;-1.932;2024-03-07T14:28:17;76;72;
49644;PMS5003;36494;50.730;-1.932;2024-03-07T14:30:41;78;72;
49644;PMS5003;36494;50.730;-1.932;2024-03-07T14:33:05;76;72;
49644;PMS5003;36494;50.730;-1.932;2024-03-07T14:35:31;78;75;
49644;PMS5003;36494;50.730;-1.932;2024-03-07T14:38:02;81;78;
49644;PMS5003;36494;50.730;-1.932;2024-03-07T14:40:22;103;90;
49644;PMS5003;36494;50.730;-1.932;2024-03-07T14:42:47;85;84;
49644;PMS5003;36494;50.730;-1.932;2024-03-07T14:45:14;85;81;
49644;PMS5003;36494;50.730;-1.932;2024-03-07T14:47:39;79;78;
49644;PMS5003;36494;50.730;-1.932;2024-03-07T14:50:05;85;81;
49644;PMS5003;36494;50.730;-1.932;2024-03-07T14:52:30;91;85;
49644;PMS5003;36494;50.730;-1.932;2024-03-07T14:54:56;88;85;
49644;PMS5003;36494;50.730;-1.932;2024-03-07T14:57:22;78;75;
49644;PMS5003;36494;50.730;-1.932;2024-03-07T14:59:48;70;69;
49644;PMS5003;36494;50.730;-1.932;2024-03-07T15:02:14;79;76;
49644;PMS5003;36494;50.730;-1.932;2024-03-07T15:04:39;76;75;
49644;PMS5003;36494;50.730;-1.932;2024-03-07T15:07:05;81;75;
49644;PMS5003;36494;50.730;-1.932;2024-03-07T15:09:31;82;78;
49644;PMS5003;36494;50.730;-1.932;2024-03-07T15:11:56;75;72;
49644;PMS5003;36494;50.730;-1.932;2024-03-07T15:14:24;78;76;
49644;PMS5003;36494;50.730;-1.932;2024-03-07T15:16:48;67;66;
49644;PMS5003;36494;50.730;-1.932;2024-03-07T15:19:13;79;76;
49644;PMS5003;36494;50.730;-1.932;2024-03-07T15:21:39;93;81;
49644;PMS5003;36494;50.730;-1.932;2024-03-07T15:24:04;78;75;
49644;PMS5003;36494;50.730;-1.932;2024-03-07T15:26:30;75;72;
49644;PMS5003;36494;50.730;-1.932;2024-03-07T15:28:55;76;75;
49644;PMS5003;36494;50.730;-1.932;2024-03-07T15:31:21;79;75;
49644;PMS5003;36494;50.730;-1.932;2024-03-07T15:33:46;75;69;
49644;PMS5003;36494;50.730;-1.932;2024-03-07T15:36:12;79;78;
49644;PMS5003;36494;50.730;-1.932;2024-03-07T15:38:37;75;69;
49644;PMS5003;36494;50.730;-1.932;2024-03-07T15:41:03;90;82;
49644;PMS5003;36494;50.730;-1.932;2024-03-07T15:43:28;85;82;
49644;PMS5003;36494;50.730;-1.932;2024-03-07T15:45:54;82;81;
49644;PMS5003;36494;50.730;-1.932;2024-03-07T15:48:19;96;94;
49644;PMS5003;36494;50.730;-1.932;2024-03-07T15:50:47;85;78;
49644;PMS5003;36494;50.730;-1.932;2024-03-07T15:53:10;88;82;
49644;PMS5003;36494;50.730;-1.932;2024-03-07T15:55:36;85;84;
49644;PMS5003;36494;50.730;-1.932;2024-03-07T15:58:01;88;82;
49644;PMS5003;36494;50.730;-1.932;2024-03-07T16:00:27;85;82;
49644;PMS5003;36494;50.730;-1.932;2024-03-07T16:02:54;91;88;
49644;PMS5003;36494;50.730;-1.932;2024-03-07T16:05:18;82;78;
49644;PMS5003;36494;50.730;-1.932;2024-03-07T16:07:44;88;81;
49644;PMS5003;36494;50.730;-1.932;2024-03-07T16:10:09;81;79;
49644;PMS5003;36494;50.730;-1.932;2024-03-07T16:12:34;81;79;